createdAt,value
2018-04-16T00:02:01.768Z,16.40
2018-04-16T00:04:29.830Z,17.23
2018-04-16T00:06:57.364Z,16.47
2018-04-16T00:09:24.905Z,16.77
2018-04-16T00:11:53.261Z,17.63
2018-04-16T00:14:20.846Z,15.90
2018-04-16T00:16:48.378Z,16.27
2018-04-16T00:19:16.661Z,16.43
2018-04-16T00:21:44.950Z,16.83
2018-04-16T00:24:12.543Z,16.77
2018-04-16T00:26:40.068Z,16.70
2018-04-16T00:29:07.629Z,16.63
2018-04-16T00:31:40.713Z,16.27
2018-04-16T00:34:14.604Z,15.93
2018-04-16T00:36:48.495Z,15.50
2018-04-16T00:39:21.679Z,16.30
2018-04-16T00:41:54.889Z,15.87
2018-04-16T00:44:29.694Z,16.83
2018-04-16T00:47:02.963Z,14.70
2018-04-16T00:49:36.939Z,15.03
2018-04-16T00:52:10.164Z,16.07
2018-04-16T00:54:43.467Z,15.07
2018-04-16T00:57:16.675Z,16.03
2018-04-16T00:59:49.807Z,15.07
2018-04-16T01:02:23.069Z,17.47
2018-04-16T01:04:56.959Z,16.67
2018-04-16T01:07:30.098Z,16.10
2018-04-16T01:10:03.151Z,16.87
2018-04-16T01:12:38.918Z,15.60
2018-04-16T01:15:12.064Z,16.67
2018-04-16T01:17:45.153Z,15.67
2018-04-16T01:20:18.267Z,15.43
2018-04-16T01:22:51.489Z,15.10
2018-04-16T01:25:24.580Z,17.17
2018-04-16T01:27:57.704Z,16.17
2018-04-16T01:30:31.032Z,15.00
2018-04-16T01:33:04.969Z,13.97
2018-04-16T01:35:38.336Z,13.70
2018-04-16T01:38:11.413Z,13.83
2018-04-16T01:40:44.514Z,14.20
2018-04-16T01:43:17.689Z,14.97
2018-04-16T01:45:51.548Z,14.60
2018-04-16T01:48:24.674Z,12.73
2018-04-16T01:51:00.101Z,16.03
2018-04-16T01:53:33.420Z,13.33
2018-04-16T01:56:07.442Z,13.17
2018-04-16T01:58:40.652Z,13.30
2018-04-16T02:01:13.772Z,12.63
2018-04-16T02:03:47.858Z,11.97
2018-04-16T02:06:21.100Z,13.73
2018-04-16T02:08:54.997Z,11.37
2018-04-16T02:11:28.241Z,11.20
2018-04-16T02:14:02.600Z,12.07
2018-04-16T02:16:36.602Z,11.30
2018-04-16T02:19:09.730Z,12.70
2018-04-16T02:21:42.898Z,12.50
2018-04-16T02:24:16.781Z,9.40
2018-04-16T02:26:49.917Z,11.40
2018-04-16T02:29:23.054Z,10.33
2018-04-16T02:31:56.150Z,9.87
2018-04-16T02:34:29.492Z,11.30
2018-04-16T02:40:06.715Z,13.40
2018-04-16T02:42:39.863Z,12.17
2018-04-16T02:45:13.866Z,10.03
2018-04-16T02:47:46.953Z,12.10
2018-04-16T02:50:20.121Z,13.10
2018-04-16T02:52:53.354Z,9.20
2018-04-16T02:55:26.489Z,10.80
2018-04-16T02:58:00.385Z,9.17
2018-04-16T03:00:33.573Z,10.10
2018-04-16T03:03:06.825Z,10.37
2018-04-16T03:05:40.136Z,8.70
2018-04-16T03:08:13.214Z,8.80
2018-04-16T03:10:46.345Z,11.47
2018-04-16T03:13:19.467Z,10.83
2018-04-16T03:15:52.556Z,10.43
2018-04-16T03:18:26.521Z,10.63
2018-04-16T03:20:59.640Z,8.90
2018-04-16T03:23:32.783Z,9.77
2018-04-16T03:26:06.565Z,10.70
2018-04-16T03:28:39.675Z,8.47
2018-04-16T03:34:18.554Z,8.83
2018-04-16T03:36:51.728Z,10.93
2018-04-16T03:39:25.555Z,9.43
2018-04-16T03:41:58.644Z,8.37
2018-04-16T03:44:31.860Z,14.40
2018-04-16T03:47:05.133Z,9.87
2018-04-16T03:52:38.880Z,12.67
2018-04-16T03:55:07.112Z,10.37
2018-04-16T03:57:35.340Z,8.67
2018-04-16T04:00:02.802Z,8.77
2018-04-16T04:02:30.286Z,12.10
2018-04-16T04:04:57.769Z,8.67
2018-04-16T04:07:25.237Z,12.03
2018-04-16T04:09:52.704Z,7.23
2018-04-16T04:12:20.952Z,9.20
2018-04-16T04:14:49.200Z,11.17
2018-04-16T04:17:16.672Z,8.23
2018-04-16T04:19:44.905Z,12.97
2018-04-16T04:22:12.378Z,9.40
2018-04-16T04:24:51.737Z,8.73
2018-04-16T04:27:31.830Z,8.87
2018-04-16T04:30:11.188Z,11.00
2018-04-16T04:32:38.677Z,8.43
2018-04-16T04:35:06.148Z,9.37
2018-04-16T04:37:34.394Z,7.37
2018-04-16T04:40:01.882Z,9.40
2018-04-16T04:42:30.125Z,6.80
2018-04-16T04:44:57.612Z,9.80
2018-04-16T04:47:25.867Z,9.50
2018-04-16T04:49:53.336Z,11.50
2018-04-16T04:52:21.689Z,8.07
2018-04-16T04:54:49.149Z,9.57
2018-04-16T04:57:16.678Z,11.90
2018-04-16T04:59:44.148Z,9.50
2018-04-16T05:02:11.621Z,10.33
2018-04-16T05:04:39.084Z,9.30
2018-04-16T05:07:06.543Z,12.73
2018-04-16T05:09:34.018Z,13.17
2018-04-16T05:12:01.488Z,7.93
2018-04-16T05:14:29.735Z,9.73
2018-04-16T05:16:57.204Z,11.47
2018-04-16T05:19:24.679Z,10.20
2018-04-16T05:21:52.912Z,11.17
2018-04-16T05:24:20.374Z,10.50
2018-04-16T05:26:47.842Z,14.47
2018-04-16T05:29:15.304Z,10.50
2018-04-16T05:31:42.777Z,15.87
2018-04-16T05:34:11.027Z,12.77
2018-04-16T05:36:38.501Z,15.60
2018-04-16T05:39:06.847Z,9.50
2018-04-16T05:41:34.315Z,9.50
2018-04-16T05:44:01.788Z,12.70
2018-04-16T05:46:29.251Z,12.60
2018-04-16T05:48:56.724Z,12.20
2018-04-16T05:51:24.202Z,12.87
2018-04-16T05:53:51.669Z,10.37
2018-04-16T05:56:19.129Z,10.10
2018-04-16T05:58:47.369Z,13.80
2018-04-16T06:01:15.600Z,11.13
2018-04-16T06:03:43.069Z,10.40
2018-04-16T06:06:10.549Z,10.80
2018-04-16T06:08:38.012Z,12.13
2018-04-16T06:11:06.276Z,10.67
2018-04-16T06:13:33.771Z,13.37
2018-04-16T06:16:01.990Z,11.27
2018-04-16T06:18:29.454Z,11.37
2018-04-16T06:20:57.148Z,11.23
2018-04-16T06:23:25.389Z,14.20
2018-04-16T06:25:52.854Z,13.67
2018-04-16T06:28:20.344Z,13.13
2018-04-16T06:30:48.568Z,15.53
2018-04-16T06:33:16.053Z,11.00
2018-04-16T06:35:43.513Z,15.30
2018-04-16T06:38:10.980Z,14.23
2018-04-16T06:40:38.440Z,14.23
2018-04-16T06:43:06.884Z,14.77
2018-04-16T06:45:34.356Z,18.77
2018-04-16T06:48:01.816Z,14.93
2018-04-16T06:50:29.280Z,16.97
2018-04-16T06:52:56.743Z,22.17
2018-04-16T06:55:24.997Z,19.27
2018-04-16T06:57:52.476Z,19.67
2018-04-16T07:00:20.721Z,18.90
2018-04-16T07:02:48.206Z,18.93
2018-04-16T07:05:15.686Z,18.90
2018-04-16T07:07:43.173Z,19.83
2018-04-16T07:10:10.689Z,19.63
2018-04-16T07:12:38.122Z,23.57
2018-04-16T07:15:05.604Z,22.23
2018-04-16T07:17:33.097Z,20.30
2018-04-16T07:20:00.587Z,21.80
2018-04-16T07:22:28.062Z,20.37
2018-04-16T07:24:56.313Z,23.70
2018-04-16T07:27:23.835Z,25.33
2018-04-16T07:29:51.311Z,22.90
2018-04-16T07:32:18.787Z,25.60
2018-04-16T07:34:46.254Z,29.30
2018-04-16T07:37:14.121Z,23.50
2018-04-16T07:39:41.617Z,24.87
2018-04-16T07:42:09.857Z,22.53
2018-04-16T07:44:37.370Z,26.53
2018-04-16T07:47:04.867Z,27.27
2018-04-16T07:49:32.353Z,24.53
2018-04-16T07:52:00.596Z,26.03
2018-04-16T07:54:28.081Z,25.90
2018-04-16T07:56:55.554Z,28.10
2018-04-16T07:59:23.039Z,25.83
2018-04-16T08:01:50.536Z,27.20
2018-04-16T08:04:18.063Z,26.97
2018-04-16T08:06:45.543Z,24.47
2018-04-16T08:09:13.010Z,31.27
2018-04-16T08:11:40.534Z,25.97
2018-04-16T08:14:08.016Z,24.77
2018-04-16T08:16:35.528Z,25.27
2018-04-16T08:19:03.010Z,25.00
2018-04-16T08:21:30.525Z,27.17
2018-04-16T08:23:58.942Z,24.37
2018-04-16T08:26:26.400Z,24.80
2018-04-16T08:28:54.635Z,24.57
2018-04-16T08:31:22.104Z,25.87
2018-04-16T08:33:50.348Z,25.60
2018-04-16T08:36:17.825Z,25.00
2018-04-16T08:38:45.296Z,27.40
2018-04-16T08:41:13.521Z,26.33
2018-04-16T08:43:41.005Z,24.97
2018-04-16T08:46:08.466Z,23.37
2018-04-16T08:48:35.936Z,22.33
2018-04-16T08:51:04.172Z,24.70
2018-04-16T08:53:31.644Z,23.37
2018-04-16T08:55:59.116Z,21.80
2018-04-16T08:58:27.351Z,22.70
2018-04-16T09:00:54.834Z,23.27
2018-04-16T09:03:22.308Z,24.23
2018-04-16T09:05:50.559Z,24.13
2018-04-16T09:08:18.029Z,23.27
2018-04-16T09:10:45.508Z,23.93
2018-04-16T09:13:13.752Z,23.00
2018-04-16T09:15:41.222Z,23.20
2018-04-16T09:18:08.692Z,23.43
2018-04-16T09:20:36.933Z,22.23
2018-04-16T09:23:04.406Z,22.47
2018-04-16T09:25:31.890Z,21.33
2018-04-16T09:28:00.117Z,20.83
2018-04-16T09:30:27.593Z,21.80
2018-04-16T09:32:55.085Z,21.53
2018-04-16T09:35:22.585Z,22.30
2018-04-16T09:37:50.090Z,21.77
2018-04-16T09:40:17.565Z,20.53
2018-04-16T09:42:45.053Z,20.97
2018-04-16T09:45:12.547Z,20.17
2018-04-16T09:47:40.020Z,22.47
2018-04-16T09:50:07.492Z,20.03
2018-04-16T09:52:34.970Z,20.70
2018-04-16T09:55:02.472Z,21.80
2018-04-16T09:57:30.156Z,22.57
2018-04-16T09:59:58.400Z,19.77
2018-04-16T10:02:25.874Z,21.30
2018-04-16T10:04:53.337Z,22.60
2018-04-16T10:07:20.803Z,20.63
2018-04-16T10:09:48.273Z,21.93
2018-04-16T10:12:16.521Z,21.40
2018-04-16T10:14:47.502Z,20.83
2018-04-16T10:17:15.062Z,20.30
2018-04-16T10:19:42.530Z,20.40
2018-04-16T10:22:10.005Z,20.00
2018-04-16T10:24:37.493Z,21.97
2018-04-16T10:27:04.977Z,21.93
2018-04-16T10:29:33.221Z,19.80
2018-04-16T10:32:00.689Z,20.60
2018-04-16T10:34:28.178Z,19.90
2018-04-16T10:36:55.685Z,20.53
2018-04-16T10:39:23.168Z,19.47
2018-04-16T10:41:51.418Z,18.53
2018-04-16T10:44:18.892Z,17.73
2018-04-16T10:46:46.369Z,16.50
2018-04-16T10:49:14.604Z,16.60
2018-04-16T10:51:42.093Z,15.73
2018-04-16T10:54:10.341Z,16.00
2018-04-16T10:56:37.809Z,16.37
2018-04-16T10:59:05.290Z,16.70
2018-04-16T11:01:33.529Z,14.60
2018-04-16T11:04:01.056Z,14.80
2018-04-16T11:06:28.533Z,15.60
2018-04-16T11:08:56.014Z,15.23
2018-04-16T11:11:23.485Z,15.00
2018-04-16T11:13:51.022Z,14.53
2018-04-16T11:16:18.501Z,17.67
2018-04-16T11:18:45.981Z,17.33
2018-04-16T11:21:14.237Z,17.67
2018-04-16T11:23:41.737Z,16.47
2018-04-16T11:26:09.236Z,16.70
2018-04-16T11:28:36.701Z,19.10
2018-04-16T11:31:04.210Z,14.83
2018-04-16T11:33:31.705Z,14.73
2018-04-16T11:35:59.172Z,15.73
2018-04-16T11:38:26.648Z,16.13
2018-04-16T11:40:54.890Z,16.13
2018-04-16T11:43:22.357Z,16.10
2018-04-16T11:45:49.840Z,18.13
2018-04-16T11:48:18.124Z,17.30
2018-04-16T11:50:46.360Z,16.40
2018-04-16T11:53:14.545Z,16.90
2018-04-16T11:55:42.031Z,18.27
2018-04-16T11:58:10.259Z,16.37
2018-04-16T12:00:37.732Z,15.67
2018-04-16T12:03:05.205Z,19.50
2018-04-16T12:05:32.700Z,18.43
2018-04-16T12:08:00.182Z,17.13
2018-04-16T12:10:27.676Z,16.40
2018-04-16T12:12:55.169Z,15.83
2018-04-16T12:15:22.645Z,16.23
2018-04-16T12:17:50.129Z,15.57
2018-04-16T12:20:17.605Z,17.37
2018-04-16T12:22:45.111Z,17.80
2018-04-16T12:25:12.629Z,20.17
2018-04-16T12:27:40.105Z,19.53
2018-04-16T12:30:08.340Z,16.80
2018-04-16T12:32:35.822Z,15.07
2018-04-16T12:35:03.301Z,17.33
2018-04-16T12:37:30.774Z,18.23
2018-04-16T12:39:58.496Z,15.90
2018-04-16T12:42:26.744Z,17.23
2018-04-16T12:44:54.209Z,13.70
2018-04-16T12:47:21.685Z,14.80
2018-04-16T12:49:49.157Z,16.10
2018-04-16T12:52:17.393Z,16.17
2018-04-16T12:54:44.888Z,16.13
2018-04-16T12:57:13.125Z,17.10
2018-04-16T12:59:40.591Z,19.23
2018-04-16T13:02:08.069Z,18.10
2018-04-16T13:04:35.534Z,18.57
2018-04-16T13:07:03.777Z,15.57
2018-04-16T13:09:31.265Z,13.73
2018-04-16T13:11:58.741Z,12.67
2018-04-16T13:14:26.263Z,15.00
2018-04-16T13:16:53.737Z,13.17
2018-04-16T13:19:21.980Z,11.37
2018-04-16T13:21:49.466Z,12.47
2018-04-16T13:24:16.942Z,10.10
2018-04-16T13:26:44.432Z,11.57
2018-04-16T13:29:11.912Z,13.03
2018-04-16T13:31:39.400Z,10.47
2018-04-16T13:34:07.653Z,13.30
2018-04-16T13:36:35.125Z,13.63
2018-04-16T13:39:02.592Z,12.47
2018-04-16T13:41:30.841Z,12.80
2018-04-16T13:43:58.362Z,13.00
2018-04-16T13:46:25.841Z,15.73
2018-04-16T13:48:53.313Z,16.27
2018-04-16T13:51:20.789Z,11.27
2018-04-16T13:53:48.274Z,14.43
2018-04-16T13:56:15.746Z,13.63
2018-04-16T13:58:43.213Z,13.37
2018-04-16T14:01:10.705Z,11.77
2018-04-16T14:03:38.166Z,12.70
2018-04-16T14:06:05.645Z,15.17
2018-04-16T14:08:33.868Z,12.63
2018-04-16T14:11:01.352Z,13.50
2018-04-16T14:13:28.825Z,12.10
2018-04-16T14:15:57.067Z,11.17
2018-04-16T14:18:24.548Z,12.80
2018-04-16T14:20:52.011Z,10.00
2018-04-16T14:23:19.853Z,11.77
2018-04-16T14:25:47.350Z,9.17
2018-04-16T14:28:15.917Z,9.80
2018-04-16T14:30:43.385Z,8.43
2018-04-16T14:33:10.975Z,9.53
2018-04-16T14:35:38.442Z,8.13
2018-04-16T14:38:05.914Z,8.73
2018-04-16T14:40:33.386Z,8.30
2018-04-16T14:43:00.865Z,8.00
2018-04-16T14:45:28.397Z,7.23
2018-04-16T14:47:55.836Z,8.70
2018-04-16T14:50:23.301Z,8.20
2018-04-16T14:52:50.960Z,8.30
2018-04-16T14:55:18.519Z,7.83
2018-04-16T14:57:45.981Z,8.00
2018-04-16T15:00:16.176Z,9.73
2018-04-16T15:02:43.642Z,8.20
2018-04-16T15:05:11.104Z,8.43
2018-04-16T15:07:38.569Z,9.57
2018-04-16T15:10:06.024Z,9.93
2018-04-16T15:12:33.501Z,8.77
2018-04-16T15:15:00.973Z,8.63
2018-04-16T15:17:28.436Z,9.50
2018-04-16T15:19:55.909Z,11.83
2018-04-16T15:22:24.138Z,9.87
2018-04-16T15:24:51.604Z,9.43
2018-04-16T15:27:19.068Z,8.57
2018-04-16T15:29:46.576Z,8.00
2018-04-16T15:32:14.801Z,8.63
2018-04-16T15:34:42.260Z,9.17
2018-04-16T15:37:09.728Z,8.30
2018-04-16T15:39:37.196Z,8.80
2018-04-16T15:42:04.657Z,9.27
2018-04-16T15:44:32.882Z,9.07
2018-04-16T15:47:00.353Z,8.87
2018-04-16T15:49:27.845Z,8.60
2018-04-16T15:51:55.308Z,10.27
2018-04-16T15:54:22.781Z,10.07
2018-04-16T15:56:51.233Z,8.97
2018-04-16T15:59:18.697Z,8.87
2018-04-16T16:01:46.157Z,7.90
2018-04-16T16:04:14.434Z,7.90
2018-04-16T16:06:41.893Z,8.53
2018-04-16T16:09:13.342Z,9.13
2018-04-16T16:11:46.718Z,8.60
2018-04-16T16:14:18.927Z,8.40
2018-04-16T16:16:54.235Z,8.57
2018-04-16T16:19:21.717Z,8.10
2018-04-16T16:21:49.954Z,8.20
2018-04-16T16:24:17.458Z,8.93
2018-04-16T16:26:44.924Z,9.13
2018-04-16T16:29:13.975Z,8.63
2018-04-16T16:31:41.454Z,9.53
2018-04-16T16:34:09.699Z,9.23
2018-04-16T16:36:40.173Z,8.90
2018-04-16T16:39:07.644Z,9.30
2018-04-16T16:41:35.144Z,11.07
2018-04-16T16:44:02.618Z,9.07
2018-04-16T16:46:30.879Z,9.20
2018-04-16T16:48:58.357Z,9.00
2018-04-16T16:51:28.882Z,9.27
2018-04-16T16:53:56.386Z,10.07
2018-04-16T16:56:23.989Z,10.13
2018-04-16T16:58:51.473Z,9.03
2018-04-16T17:01:20.440Z,10.07
2018-04-16T17:03:47.909Z,7.53
2018-04-16T17:06:15.385Z,8.23
2018-04-16T17:08:43.620Z,8.37
2018-04-16T17:11:11.098Z,8.67
2018-04-16T17:13:39.352Z,8.57
2018-04-16T17:16:06.805Z,5.17
2018-04-16T17:18:34.261Z,7.03
2018-04-16T17:21:02.343Z,5.30
2018-04-16T17:23:29.804Z,6.10
2018-04-16T17:25:57.488Z,6.53
2018-04-16T17:28:25.189Z,8.00
2018-04-16T17:30:52.651Z,7.53
2018-04-16T17:33:20.133Z,6.87
2018-04-16T17:35:47.585Z,5.23
2018-04-16T17:38:15.397Z,6.77
2018-04-16T17:40:42.865Z,6.50
2018-04-16T17:43:10.361Z,7.73
2018-04-16T17:45:37.835Z,7.80
2018-04-16T17:48:05.388Z,7.30
2018-04-16T17:50:32.856Z,8.53
2018-04-16T17:53:00.429Z,8.47
2018-04-16T17:55:27.892Z,7.63
2018-04-16T17:57:56.131Z,8.70
2018-04-16T18:00:23.656Z,8.63
2018-04-16T18:02:51.119Z,8.27
2018-04-16T18:05:18.584Z,10.00
2018-04-16T18:07:46.036Z,9.20
2018-04-16T18:10:13.491Z,9.77
2018-04-16T18:12:40.992Z,10.90
2018-04-16T18:15:12.293Z,10.17
2018-04-16T18:17:42.784Z,9.33
2018-04-16T18:20:11.690Z,10.70
2018-04-16T18:22:42.215Z,10.27
2018-04-16T18:25:10.522Z,10.23
2018-04-16T18:27:38.043Z,10.40
2018-04-16T18:30:05.546Z,12.03
2018-04-16T18:32:33.014Z,11.60
2018-04-16T18:35:01.913Z,11.73
2018-04-16T18:37:29.396Z,12.87
2018-04-16T18:39:56.857Z,13.27
2018-04-16T18:42:25.043Z,13.13
2018-04-16T18:44:53.290Z,14.37
2018-04-16T18:47:20.764Z,13.83
2018-04-16T18:49:49.021Z,15.97
2018-04-16T18:52:16.489Z,15.00
2018-04-16T18:54:43.968Z,16.13
2018-04-16T18:57:12.200Z,15.77
2018-04-16T18:59:39.669Z,14.03
2018-04-16T19:02:07.133Z,14.70
2018-04-16T19:04:34.707Z,14.53
2018-04-16T19:07:02.227Z,14.60
2018-04-16T19:09:29.692Z,15.10
2018-04-16T19:11:57.266Z,13.23
2018-04-16T19:14:25.520Z,14.17
2018-04-16T19:16:53.123Z,13.23
2018-04-16T19:19:21.369Z,13.17
2018-04-16T19:21:53.774Z,13.53
2018-04-16T19:24:21.244Z,11.93
2018-04-16T19:26:55.120Z,12.23
2018-04-16T19:29:22.576Z,12.73
2018-04-16T19:31:50.056Z,11.53
2018-04-16T19:34:24.857Z,11.63
2018-04-16T19:36:52.332Z,12.17
2018-04-16T19:39:20.590Z,11.77
2018-04-16T19:41:53.629Z,13.27
2018-04-16T19:44:21.110Z,13.27
2018-04-16T19:46:48.633Z,12.57
2018-04-16T19:49:24.840Z,14.80
2018-04-16T19:51:52.309Z,15.13
2018-04-16T19:54:19.967Z,13.67
2018-04-16T19:56:53.158Z,15.00
2018-04-16T19:59:20.682Z,12.90
2018-04-16T20:01:53.901Z,13.07
2018-04-16T20:04:21.382Z,12.87
2018-04-16T20:06:49.649Z,12.17
2018-04-16T20:09:17.207Z,10.60
2018-04-16T20:11:44.700Z,15.63
2018-04-16T20:14:12.941Z,11.10
2018-04-16T20:16:40.452Z,10.03
2018-04-16T20:19:07.912Z,12.27
2018-04-16T20:21:36.691Z,12.10
2018-04-16T20:24:04.205Z,11.30
2018-04-16T20:26:31.689Z,12.13
2018-04-16T20:28:59.943Z,12.27
2018-04-16T20:31:27.412Z,14.73
2018-04-16T20:33:54.884Z,11.77
2018-04-16T20:36:23.128Z,14.17
2018-04-16T20:38:50.620Z,12.90
2018-04-16T20:41:18.857Z,14.07
2018-04-16T20:43:46.324Z,14.43
2018-04-16T20:46:13.784Z,14.13
2018-04-16T20:48:41.256Z,12.97
2018-04-16T20:51:08.761Z,13.43
2018-04-16T20:53:36.232Z,14.60
2018-04-16T20:56:03.705Z,15.30
2018-04-16T20:58:31.191Z,13.90
2018-04-16T21:00:59.433Z,13.67
2018-04-16T21:03:26.957Z,15.80
2018-04-16T21:05:54.438Z,14.50
2018-04-16T21:08:21.913Z,14.93
2018-04-16T21:10:49.383Z,14.33
2018-04-16T21:13:16.865Z,14.90
2018-04-16T21:15:45.097Z,14.90
2018-04-16T21:18:12.575Z,14.80
2018-04-16T21:20:40.042Z,15.27
2018-04-16T21:23:07.516Z,15.53
2018-04-16T21:25:35.766Z,15.07
2018-04-16T21:28:03.237Z,14.97
2018-04-16T21:30:31.484Z,15.10
2018-04-16T21:32:58.949Z,14.67
2018-04-16T21:35:26.421Z,16.60
2018-04-16T21:37:54.676Z,14.87
2018-04-16T21:40:22.149Z,15.67
2018-04-16T21:42:50.408Z,15.60
2018-04-16T21:45:17.870Z,15.40
2018-04-16T21:47:45.356Z,15.90
2018-04-16T21:50:13.595Z,16.03
2018-04-16T21:52:41.070Z,16.07
2018-04-16T21:55:08.559Z,15.53
2018-04-16T21:57:36.035Z,14.97
2018-04-16T22:00:03.562Z,15.13
2018-04-16T22:02:31.912Z,15.93
2018-04-16T22:04:59.388Z,16.33
2018-04-16T22:07:26.852Z,14.93
2018-04-16T22:09:55.101Z,14.73
2018-04-16T22:12:22.577Z,16.17
2018-04-16T22:14:50.817Z,15.93
2018-04-16T22:17:18.290Z,16.37
2018-04-16T22:19:45.756Z,14.73
2018-04-16T22:22:13.227Z,15.20
2018-04-16T22:24:41.462Z,14.97
2018-04-16T22:27:08.928Z,14.27
2018-04-16T22:29:36.396Z,15.10
2018-04-16T22:32:03.868Z,15.47
2018-04-16T22:34:31.345Z,14.20
2018-04-16T22:36:59.581Z,15.17
2018-04-16T22:39:27.045Z,15.30
2018-04-16T22:41:54.543Z,12.60
2018-04-16T22:44:22.764Z,12.80
2018-04-16T22:46:50.251Z,13.60
2018-04-16T22:49:17.725Z,14.50
2018-04-16T22:51:45.204Z,13.13
2018-04-16T22:54:12.680Z,11.77
2018-04-16T22:56:40.161Z,16.47
2018-04-16T22:59:07.628Z,13.17
2018-04-16T23:01:35.097Z,13.33
2018-04-16T23:04:02.573Z,12.87
2018-04-16T23:06:31.081Z,13.27
2018-04-16T23:08:58.554Z,13.00
2018-04-16T23:11:26.036Z,14.77
2018-04-16T23:13:53.506Z,15.10
2018-04-16T23:16:20.980Z,15.27
2018-04-16T23:18:49.220Z,14.73
2018-04-16T23:21:16.690Z,13.57
2018-04-16T23:23:44.928Z,14.53
2018-04-16T23:26:12.399Z,14.03
2018-04-16T23:28:39.876Z,15.17
2018-04-16T23:31:07.343Z,14.93
2018-04-16T23:33:34.816Z,14.57
2018-04-16T23:36:03.047Z,13.90
2018-04-16T23:38:30.522Z,13.80
2018-04-16T23:40:57.984Z,14.17
2018-04-16T23:43:25.456Z,14.97
2018-04-16T23:45:53.691Z,14.90
2018-04-16T23:48:21.157Z,15.87
2018-04-16T23:50:48.633Z,15.30
2018-04-16T23:53:16.874Z,14.70
2018-04-16T23:55:44.348Z,14.83
2018-04-16T23:58:11.817Z,16.63
